Anucino, Russia

11:18 AM VLAT on November 28, 2014 (GMT +1000)
Knevichi | Change Station
CLOSE
Current Station
Airport
Location: Vladivostok,
Elevation: 46 ft
Nearby Weather Stations

Elev 46 ft 43.40 °N, 132.15 °E | Updated 18 minutes ago

Overcast
Overcast
28 °F
Feels Like 19 °F
N
11
Wind Variable Wind from NW

Today
High -- | Low -- °F
--% Chance of Precip.
Yesterday
High -- | Low -- °F
Precip. -- in
8:18 AM 5:32 PM
Waxing Crescent, 34% visible
Pressure 30.27 in
Visibility 6.2 miles
Clouds Overcast 5000 ft
Windchill 19 °F
Dew Point 9 °F
Humidity 43%
Rainfall 0.00 in
Snow Depth Not available.
UV 0 out of 12
Pollen Not available.
Air Quality Not available.
Flu Activity Not available.
METAR UHWW 280100Z 31005MPS 9999 OVC050 M02/M13 Q1025 NOSIG RMK QFE768/1024 25CLRD70

More Conditions Fewer Conditions

Pressure 30.27 in
Visibility 6.2 miles
Clouds Overcast 5000 ft
Windchill 19 °F
Dew Point 9 °F
Humidity 43%
Rainfall 0.00 in
Snow Depth Not available.
UV 0 out of 12
Pollen Not available.
Air Quality Not available.
Flu Activity Not available.
METAR UHWW 280100Z 31005MPS 9999 OVC050 M02/M13 Q1025 NOSIG RMK QFE768/1024 25CLRD70

More Conditions Fewer Conditions

10-Day Weather Forecast

Almanac

Astronomy

Nov. 28, 2014 Rise Set
Actual Time
Civil Twilight
Nautical Twilight
Astronomical Twilight
Moon
Length of Visible Light
Length of Day
Tomorrow will be .
, % of the Moon is Illuminated

Today's Extremes

Country Highs Country Lows

Community

WunderPhotos

Upload Photos

1,774,148 photos uploaded!

WunderBlogs® & News

Nearby

Air Quality

  Air Quality AQ Index Pollutant
Not available.

Snow Depth

Station Depth Elevation

Earthquake Activity

City Distance Mag. Time & Date
Minimum magnitude displayed is 2.5.

Coastal Water Temperatures

Place Temperature

Nearby Weather Stations